Time;durP1;ratioP1;P1;durP2;ratioP2;P2;SDS_P1;SDS_P2;PMS_P1;PMS_P2;Temp;Humidity;BMP_temperature;BMP_pressure;BME280_temperature;BME280_humidity;BME280_pressure;Samples;Min_cycle;Max_cycle;Signal;HPM_P1;HPM_P2
2021/04/15 00:02:22;;;;;;;8.13;5.53;;;2.10;68.00;;;;;;5180643;28;20069;-65
2021/04/15 00:04:54;;;;;;;8.52;6.28;;;2.10;68.10;;;;;;5186552;28;20042;-66
2021/04/15 00:07:25;;;;;;;8.77;6.22;;;2.10;68.20;;;;;;5185194;28;20132;-66
2021/04/15 00:10:09;;;;;;;8.38;6.38;;;2.10;68.30;;;;;;5169294;28;643176;-67
2021/04/15 00:12:41;;;;;;;8.25;6.18;;;2.10;69.00;;;;;;5188438;28;20062;-67
2021/04/15 00:15:14;;;;;;;8.05;6.53;;;2.10;69.00;;;;;;5191136;28;20404;-67
2021/04/15 00:17:45;;;;;;;9.65;6.22;;;2.10;69.50;;;;;;5192235;28;20207;-67
2021/04/15 00:20:17;;;;;;;9.70;6.78;;;2.00;70.90;;;;;;5187871;28;20588;-66
2021/04/15 00:22:49;;;;;;;9.57;6.90;;;2.00;70.20;;;;;;5193541;28;20084;-68
2021/04/15 00:25:20;;;;;;;8.00;6.47;;;2.10;70.30;;;;;;5190285;28;20078;-67
2021/04/15 00:27:53;;;;;;;8.13;6.28;;;2.00;71.20;;;;;;5186562;28;20091;-66
2021/04/15 00:30:25;;;;;;;8.57;7.03;;;2.00;70.60;;;;;;5190310;28;20100;-65
2021/04/15 00:32:57;;;;;;;9.02;7.15;;;2.00;70.90;;;;;;5191107;28;20121;-66
2021/04/15 00:35:28;;;;;;;10.38;7.07;;;2.00;71.60;;;;;;5192224;28;20042;-65
2021/04/15 00:38:00;;;;;;;7.97;6.57;;;1.90;71.70;;;;;;5193725;28;20053;-65
2021/04/15 00:40:35;;;;;;;8.77;7.18;;;1.80;72.50;;;;;;5191769;28;20443;-69
2021/04/15 00:43:06;;;;;;;9.25;7.10;;;1.80;71.60;;;;;;5189540;28;20400;-66
2021/04/15 00:45:41;;;;;;;8.90;6.97;;;1.90;71.50;;;;;;5188718;28;20046;-66
2021/04/15 00:48:42;;;;;;;8.77;6.85;;;1.90;71.80;;;;;;5190907;28;20046;-66
2021/04/15 00:51:31;;;;;;;;;;;1.80;71.80;;;;;;5188427;28;20052;-66
2021/04/15 00:54:08;;;;;;;10.60;7.63;;;1.90;71.60;;;;;;5191427;28;20015;-68
2021/04/15 00:56:40;;;;;;;10.23;7.80;;;1.90;71.90;;;;;;5188182;28;20658;-65
2021/04/15 00:59:12;;;;;;;10.30;7.57;;;1.80;72.60;;;;;;5189322;28;20056;-66
2021/04/15 01:01:43;;;;;;;11.10;8.38;;;1.70;72.70;;;;;;5187095;28;20503;-65
2021/04/15 01:04:16;;;;;;;11.30;7.55;;;1.60;73.20;;;;;;5186627;28;20049;-65
2021/04/15 01:06:49;;;;;;;10.77;7.72;;;1.60;73.00;;;;;;5188140;28;20046;-68
2021/04/15 01:09:22;;;;;;;10.95;8.40;;;1.70;73.30;;;;;;5187498;28;20459;-67
2021/04/15 01:12:09;;;;;;;9.85;8.07;;;1.70;73.30;;;;;;5183522;28;20067;-66
2021/04/15 01:14:54;;;;;;;9.82;8.05;;;1.60;73.60;;;;;;5188016;28;20046;-66
2021/04/15 01:17:36;;;;;;;9.57;8.00;;;1.60;73.80;;;;;;5189066;28;20132;-66
2021/04/15 01:20:08;;;;;;;9.63;8.18;;;1.60;73.40;;;;;;5189337;28;20040;-67
2021/04/15 01:23:10;;;;;;;8.75;7.53;;;1.60;73.30;;;;;;5179160;28;20042;-65
2021/04/15 01:26:08;;;;;;;9.40;8.15;;;1.70;73.60;;;;;;5180995;28;20042;-65
2021/04/15 01:29:00;;;;;;;10.73;8.38;;;1.70;72.80;;;;;;5183620;28;20057;-66
2021/04/15 01:32:03;;;;;;;11.50;7.93;;;1.80;72.60;;;;;;5167133;28;20049;-68
2021/04/15 01:35:12;;;;;;;11.95;8.98;;;1.80;72.50;;;;;;5167800;28;20224;-66
2021/04/15 01:37:44;;;;;;;9.98;7.40;;;1.80;73.40;;;;;;5188530;28;20057;-66
2021/04/15 01:40:22;;;;;;;11.05;7.93;;;1.70;73.00;;;;;;5187392;28;20045;-66
2021/04/15 01:43:02;;;;;;;9.85;7.22;;;1.70;72.80;;;;;;5186541;28;20045;-65
2021/04/15 01:45:33;;;;;;;10.48;8.15;;;1.70;72.80;;;;;;5188902;28;20380;-68
2021/04/15 01:48:16;;;;;;;10.43;7.22;;;1.70;72.60;;;;;;5181399;28;20044;-66
2021/04/15 01:51:08;;;;;;;10.13;8.52;;;1.70;72.50;;;;;;5187890;28;20507;-68
2021/04/15 01:53:45;;;;;;;9.18;7.68;;;1.70;72.80;;;;;;5195129;28;20033;-65
2021/04/15 01:56:43;;;;;;;10.85;7.80;;;1.70;72.80;;;;;;5185401;28;20572;-67
2021/04/15 01:59:28;;;;;;;12.73;8.05;;;1.70;73.20;;;;;;5185687;28;20504;-66
2021/04/15 02:02:17;;;;;;;10.80;8.30;;;1.70;72.10;;;;;;5186950;28;20106;-66
2021/04/15 02:04:55;;;;;;;11.95;8.05;;;1.70;72.60;;;;;;5189184;28;20157;-68
2021/04/15 02:07:31;;;;;;;11.07;7.88;;;1.60;73.20;;;;;;5186119;28;20065;-66
2021/04/15 02:10:07;;;;;;;9.15;7.30;;;1.60;73.00;;;;;;5186899;28;20221;-67
2021/04/15 02:12:43;;;;;;;10.15;7.57;;;1.60;72.10;;;;;;5185638;28;20573;-66
2021/04/15 02:15:23;;;;;;;9.70;8.20;;;1.70;72.20;;;;;;5189740;28;20037;-66
2021/04/15 02:18:04;;;;;;;12.35;9.13;;;1.70;72.80;;;;;;5186854;28;20050;-65
2021/04/15 02:20:35;;;;;;;12.10;8.70;;;1.60;72.80;;;;;;5188275;28;20046;-66
2021/04/15 02:23:15;;;;;;;10.00;8.40;;;1.60;72.60;;;;;;5191149;28;20627;-65
2021/04/15 02:25:54;;;;;;;9.18;7.93;;;1.60;72.20;;;;;;5185914;28;20112;-66
2021/04/15 02:28:55;;;;;;;9.25;7.30;;;1.60;71.70;;;;;;5187521;28;20595;-66
2021/04/15 02:31:35;;;;;;;11.07;7.70;;;1.60;71.20;;;;;;5185939;28;20060;-64
2021/04/15 02:34:13;;;;;;;10.05;8.20;;;1.60;71.20;;;;;;5188632;28;20120;-65
2021/04/15 02:36:51;;;;;;;10.02;7.88;;;1.70;71.00;;;;;;5169020;28;20920;-64
2021/04/15 02:39:42;;;;;;;10.65;8.23;;;1.60;71.10;;;;;;5166569;28;20062;-65
2021/04/15 02:42:22;;;;;;;9.07;7.70;;;1.50;71.70;;;;;;5168778;28;20869;-65
2021/04/15 02:45:39;;;;;;;10.15;8.30;;;1.50;71.40;;;;;;5166867;28;20077;-65
2021/04/15 02:48:23;;;;;;;10.10;7.70;;;1.50;71.20;;;;;;5187131;28;20054;-65
2021/04/15 02:51:00;;;;;;;10.18;7.90;;;1.50;70.90;;;;;;5184859;28;20467;-64
2021/04/15 02:53:43;;;;;;;10.00;7.75;;;1.60;71.00;;;;;;5181165;28;20104;-67
2021/04/15 02:56:22;;;;;;;10.80;8.32;;;1.60;71.20;;;;;;5187007;28;20057;-66
2021/04/15 02:59:07;;;;;;;10.93;9.10;;;1.50;72.20;;;;;;5187808;28;20045;-65
2021/04/15 03:01:44;;;;;;;11.05;8.68;;;1.50;72.10;;;;;;5185986;28;20060;-65
2021/04/15 03:04:20;;;;;;;10.75;8.35;;;1.40;71.80;;;;;;5187826;28;20083;-65
2021/04/15 03:06:55;;;;;;;9.75;8.20;;;1.40;71.90;;;;;;5186947;28;20049;-65
2021/04/15 03:09:33;;;;;;;10.48;8.50;;;1.40;72.10;;;;;;5186417;28;20046;-65
2021/04/15 03:12:15;;;;;;;10.32;8.35;;;1.50;71.80;;;;;;5173272;28;20655;-66
2021/04/15 03:14:50;;;;;;;10.82;8.40;;;1.50;71.70;;;;;;5164893;28;20046;-67
2021/04/15 03:17:23;;;;;;;10.50;8.63;;;1.50;71.90;;;;;;5187393;28;20531;-65
2021/04/15 03:20:01;;;;;;;11.85;9.02;;;1.50;71.20;;;;;;5186163;28;20041;-65
2021/04/15 03:23:00;;;;;;;10.18;8.10;;;1.40;72.40;;;;;;5184174;28;20065;-66
2021/04/15 03:25:32;;;;;;;12.48;9.45;;;1.40;71.40;;;;;;5184299;28;20041;-66
2021/04/15 03:28:16;;;;;;;9.98;8.65;;;1.40;71.80;;;;;;5190960;28;20068;-68
2021/04/15 03:31:23;;;;;;;12.68;9.20;;;1.40;71.90;;;;;;5187270;28;20044;-68
2021/04/15 03:34:03;;;;;;;10.93;8.65;;;1.30;71.90;;;;;;5188014;28;20070;-65
2021/04/15 03:36:42;;;;;;;11.70;9.07;;;1.30;71.90;;;;;;5186213;28;20586;-66
2021/04/15 03:39:19;;;;;;;10.80;8.40;;;1.30;71.80;;;;;;5186463;28;20135;-68
2021/04/15 03:42:01;;;;;;;10.90;8.63;;;1.30;71.80;;;;;;5184151;28;20061;-65
2021/04/15 03:44:37;;;;;;;11.00;9.18;;;1.20;72.60;;;;;;5185675;28;20068;-67
2021/04/15 03:47:13;;;;;;;12.13;9.18;;;1.10;72.70;;;;;;5186194;28;20096;-65
2021/04/15 03:49:51;;;;;;;11.95;8.95;;;1.20;72.50;;;;;;5183843;28;20048;-66
2021/04/15 03:52:28;;;;;;;13.75;10.48;;;1.20;72.20;;;;;;5200903;28;20045;-65
2021/04/15 03:55:25;;;;;;;14.32;10.60;;;1.20;72.30;;;;;;5187056;28;20037;-65
2021/04/15 03:58:15;;;;;;;11.95;8.95;;;1.20;72.40;;;;;;5188220;28;20480;-65
2021/04/15 04:00:51;;;;;;;12.70;9.48;;;1.20;72.60;;;;;;5184777;28;20108;-67
2021/04/15 04:03:26;;;;;;;12.48;10.15;;;1.20;72.60;;;;;;5181527;28;20042;-65
2021/04/15 04:06:04;;;;;;;11.65;9.63;;;1.10;73.10;;;;;;5185421;28;20061;-65
2021/04/15 04:08:49;;;;;;;12.23;10.40;;;1.10;72.90;;;;;;5185928;28;20050;-65
2021/04/15 04:11:24;;;;;;;13.63;10.02;;;1.00;73.50;;;;;;5201873;28;20036;-66
2021/04/15 04:14:00;;;;;;;13.57;10.00;;;0.90;73.70;;;;;;5185295;28;20533;-65
2021/04/15 04:16:44;;;;;;;11.63;10.32;;;1.00;73.80;;;;;;5186104;28;20072;-67
2021/04/15 04:19:16;;;;;;;14.48;11.00;;;1.00;73.70;;;;;;5187697;28;20045;-65
2021/04/15 04:22:14;;;;;;;12.85;10.55;;;1.00;74.30;;;;;;5185284;28;20046;-67
2021/04/15 04:25:08;;;;;;;15.13;10.13;;;0.90;74.10;;;;;;5192729;28;20465;-65
2021/04/15 04:27:49;;;;;;;14.95;12.00;;;0.90;73.90;;;;;;5179371;28;20061;-65
2021/04/15 04:30:46;;;;;;;13.85;9.40;;;0.90;74.50;;;;;;5186631;28;20042;-65
2021/04/15 04:33:20;;;;;;;12.40;9.43;;;0.90;74.40;;;;;;5183960;28;21965;-65
2021/04/15 04:35:56;;;;;;;13.60;9.40;;;0.80;75.00;;;;;;5173863;28;20108;-65
2021/04/15 04:38:27;;;;;;;14.10;9.85;;;0.70;75.30;;;;;;5163991;28;20114;-65
2021/04/15 04:41:06;;;;;;;13.35;9.63;;;0.80;75.40;;;;;;5164971;28;20086;-65
2021/04/15 04:43:48;;;;;;;13.02;9.70;;;0.80;75.00;;;;;;5167383;28;20190;-66
2021/04/15 04:46:38;;;;;;;12.30;9.85;;;0.90;74.70;;;;;;5175883;28;20050;-68
2021/04/15 04:49:27;;;;;;;14.77;9.63;;;0.90;74.70;;;;;;5184651;28;20516;-66
2021/04/15 04:52:20;;;;;;;15.20;9.68;;;0.90;74.60;;;;;;5189648;28;20535;-66
2021/04/15 04:54:53;;;;;;;12.65;9.23;;;1.00;74.30;;;;;;5186936;28;20034;-66
2021/04/15 04:57:38;;;;;;;13.90;10.38;;;1.00;74.10;;;;;;5189308;28;20029;-66
2021/04/15 05:00:13;;;;;;;14.65;10.88;;;1.00;74.10;;;;;;5189492;28;20052;-66
2021/04/15 05:02:50;;;;;;;13.07;10.32;;;1.00;74.40;;;;;;5187458;28;20597;-66
2021/04/15 05:05:25;;;;;;;14.38;10.45;;;1.00;74.20;;;;;;5188902;28;20054;-68
2021/04/15 05:08:15;;;;;;;14.32;10.07;;;1.10;74.40;;;;;;5190228;28;20502;-66
2021/04/15 05:10:51;;;;;;;12.77;9.65;;;1.10;74.00;;;;;;5188403;28;20069;-67
2021/04/15 05:13:29;;;;;;;15.60;10.23;;;1.20;73.70;;;;;;5188808;28;20092;-66
2021/04/15 05:16:02;;;;;;;14.88;10.32;;;1.20;73.80;;;;;;5188464;28;20049;-65
2021/04/15 05:18:35;;;;;;;13.80;9.52;;;1.10;74.30;;;;;;5189484;28;20058;-66
2021/04/15 05:21:17;;;;;;;13.48;9.95;;;1.10;73.80;;;;;;5187909;28;20440;-64
2021/04/15 05:24:05;;;;;;;14.30;9.85;;;1.20;74.10;;;;;;5190704;28;20112;-66
2021/04/15 05:26:40;;;;;;;13.57;10.45;;;1.30;73.50;;;;;;5189339;28;20533;-64
2021/04/15 05:29:35;;;;;;;16.60;10.90;;;1.30;73.20;;;;;;5187145;28;20515;-64
2021/04/15 05:32:11;;;;;;;15.05;10.80;;;1.30;73.30;;;;;;5190631;28;20079;-64
2021/04/15 05:34:53;;;;;;;13.63;10.68;;;1.30;73.30;;;;;;5179918;28;20042;-66
2021/04/15 05:37:27;;;;;;;15.40;10.45;;;1.30;73.60;;;;;;5186306;28;20053;-65
2021/04/15 05:40:03;;;;;;;14.50;10.73;;;1.40;73.20;;;;;;5187632;28;20053;-64
2021/04/15 05:42:42;;;;;;;13.57;9.93;;;1.40;72.90;;;;;;5185982;28;20045;-66
2021/04/15 05:45:23;;;;;;;14.23;10.30;;;1.50;72.40;;;;;;5186540;28;20057;-65
2021/04/15 05:48:02;;;;;;;13.25;9.73;;;1.60;72.20;;;;;;5190478;28;20145;-65
2021/04/15 05:50:46;;;;;;;16.15;9.85;;;1.60;72.50;;;;;;5176970;28;20937;-67
2021/04/15 05:53:25;;;;;;;15.20;10.52;;;1.60;72.00;;;;;;5166306;28;20041;-66
2021/04/15 05:56:04;;;;;;;14.82;10.40;;;1.80;72.00;;;;;;5188204;28;20107;-64
2021/04/15 05:59:13;;;;;;;14.52;9.75;;;1.90;71.90;;;;;;5187102;28;20041;-65
2021/04/15 06:02:03;;;;;;;13.93;8.90;;;1.90;71.50;;;;;;5186639;28;20045;-65
2021/04/15 06:04:42;;;;;;;14.20;9.68;;;1.90;71.20;;;;;;5189857;28;20391;-66
2021/04/15 06:07:17;;;;;;;14.07;9.55;;;2.00;71.00;;;;;;5187312;28;20415;-65
2021/04/15 06:09:50;;;;;;;15.38;10.65;;;2.10;71.00;;;;;;5189383;28;20050;-67
2021/04/15 06:12:39;;;;;;;14.18;9.90;;;2.10;70.30;;;;;;5190952;28;20145;-65
2021/04/15 06:15:17;;;;;;;15.05;9.23;;;2.20;70.60;;;;;;5187661;28;20046;-65
2021/04/15 06:18:16;;;;;;;14.05;9.98;;;2.20;70.30;;;;;;5183943;28;20041;-65
2021/04/15 06:20:56;;;;;;;13.93;9.93;;;2.30;70.60;;;;;;5184795;28;20045;-66
2021/04/15 06:23:30;;;;;;;13.70;10.43;;;2.20;70.80;;;;;;5188168;28;20606;-65
2021/04/15 06:26:04;;;;;;;12.57;9.65;;;2.30;70.60;;;;;;5187291;28;20056;-66
2021/04/15 06:28:40;;;;;;;15.48;9.65;;;2.30;69.90;;;;;;5187821;28;20062;-65
2021/04/15 06:31:29;;;;;;;14.48;9.93;;;2.40;69.90;;;;;;5163212;28;20129;-65
2021/04/15 06:34:06;;;;;;;15.68;9.82;;;2.40;69.40;;;;;;5167401;28;20161;-65
2021/04/15 06:36:51;;;;;;;13.65;9.10;;;2.50;69.70;;;;;;5182574;28;20045;-65
2021/04/15 06:39:46;;;;;;;19.40;10.13;;;2.50;69.50;;;;;;5193310;28;20092;-65
2021/04/15 06:42:32;;;;;;;13.85;9.30;;;2.50;69.40;;;;;;5185268;28;20152;-65
2021/04/15 06:45:26;;;;;;;11.70;8.80;;;2.50;69.60;;;;;;5186300;28;20365;-66
2021/04/15 06:48:18;;;;;;;13.05;9.25;;;2.70;69.00;;;;;;5188743;28;20050;-65
2021/04/15 06:51:29;;;;;;;14.68;9.93;;;2.80;68.50;;;;;;5186486;28;20069;-66
2021/04/15 06:54:19;;;;;;;13.32;9.32;;;2.70;69.20;;;;;;5187939;28;20038;-66
2021/04/15 06:56:56;;;;;;;12.73;8.77;;;2.80;67.80;;;;;;5185677;28;20392;-65
2021/04/15 06:59:54;;;;;;;12.18;8.45;;;2.80;67.10;;;;;;5185219;28;20088;-64
2021/04/15 07:02:43;;;;;;;13.20;8.80;;;2.90;66.30;;;;;;5186108;28;20052;-65
2021/04/15 07:05:23;;;;;;;11.23;8.87;;;2.90;67.00;;;;;;5202381;28;20141;-64
2021/04/15 07:08:03;;;;;;;11.65;8.55;;;3.00;67.50;;;;;;5186824;28;20681;-65
2021/04/15 07:10:58;;;;;;;11.43;8.27;;;3.10;66.10;;;;;;5185284;28;20095;-67
2021/04/15 07:14:04;;;;;;;12.75;8.98;;;3.30;65.40;;;;;;5185950;28;20030;-65
2021/04/15 07:17:13;;;;;;;11.68;8.00;;;3.30;64.50;;;;;;5140984;28;20070;-65
2021/04/15 07:20:22;;;;;;;12.30;8.57;;;3.30;64.40;;;;;;5187602;28;20061;-64
2021/04/15 07:23:32;;;;;;;12.10;8.73;;;3.40;64.80;;;;;;5165259;28;20042;-65
2021/04/15 07:26:25;;;;;;;12.00;8.95;;;3.50;64.50;;;;;;5164402;28;20050;-65
2021/04/15 07:29:28;;;;;;;13.20;8.63;;;3.60;65.10;;;;;;5166509;28;20047;-64
2021/04/15 07:32:24;;;;;;;13.02;8.73;;;3.80;63.70;;;;;;5180460;28;20046;-66
2021/04/15 07:35:23;;;;;;;11.50;8.35;;;3.80;64.20;;;;;;5187934;28;20523;-64
2021/04/15 07:38:07;;;;;;;14.30;8.82;;;3.80;62.90;;;;;;5190220;28;20056;-65
2021/04/15 07:40:45;;;;;;;15.25;9.38;;;3.80;62.00;;;;;;5186631;28;20077;-64
2021/04/15 07:43:31;;;;;;;12.00;8.60;;;3.80;62.90;;;;;;5185021;28;20049;-65
2021/04/15 07:46:48;;;;;;;10.68;7.80;;;3.90;62.40;;;;;;5185771;28;20176;-66
2021/04/15 07:49:57;;;;;;;11.07;8.13;;;4.00;61.30;;;;;;5132592;28;20164;-65
2021/04/15 07:52:40;;;;;;;10.05;7.25;;;4.00;60.40;;;;;;5111354;28;20437;-64
2021/04/15 07:55:49;;;;;;;11.95;8.02;;;4.10;61.30;;;;;;5156055;28;20065;-65
2021/04/15 07:58:45;;;;;;;9.88;7.13;;;4.30;59.70;;;;;;5167737;28;20524;-65
2021/04/15 08:01:16;;;;;;;9.68;6.75;;;4.50;59.10;;;;;;5173891;28;20416;-64
2021/04/15 08:03:51;;;;;;;11.00;7.40;;;4.60;58.30;;;;;;5184168;28;20062;-66
2021/04/15 08:06:31;;;;;;;10.18;7.28;;;4.70;58.10;;;;;;5186732;28;20132;-65
2021/04/15 08:09:35;;;;;;;9.80;6.97;;;4.70;58.50;;;;;;5186978;28;20040;-66
2021/04/15 08:12:33;;;;;;;11.00;7.40;;;4.80;58.00;;;;;;5171833;28;20796;-65
2021/04/15 08:15:55;;;;;;;9.88;7.50;;;4.80;57.90;;;;;;5185660;28;20046;-64
2021/04/15 08:18:42;;;;;;;10.52;7.53;;;4.80;57.30;;;;;;5186505;28;20050;-66
2021/04/15 08:21:52;;;;;;;9.63;7.15;;;4.80;56.60;;;;;;5186779;28;20236;-65
2021/04/15 08:24:38;;;;;;;10.05;7.05;;;4.70;56.60;;;;;;5143971;28;20062;-64
2021/04/15 08:27:34;;;;;;;11.13;7.15;;;4.70;57.10;;;;;;5181468;28;20512;-64
2021/04/15 08:30:20;;;;;;;13.38;7.07;;;4.70;56.80;;;;;;5189515;28;20041;-65
2021/04/15 08:33:00;;;;;;;13.20;7.65;;;5.00;56.10;;;;;;5187520;28;20507;-64
2021/04/15 08:35:38;;;;;;;;;;;4.90;55.80;;;;;;5204705;28;20057;-65
2021/04/15 08:38:18;;;;;;;11.73;7.60;;;4.90;55.40;;;;;;5206428;28;20502;-65
2021/04/15 08:40:55;;;;;;;10.63;6.65;;;4.90;56.10;;;;;;5192374;28;20049;-65
2021/04/15 08:43:34;;;;;;;10.52;6.88;;;4.80;55.60;;;;;;5192185;28;20119;-64
2021/04/15 08:46:18;;;;;;;9.40;6.60;;;4.70;56.40;;;;;;5190196;28;20058;-64
2021/04/15 08:49:06;;;;;;;10.40;6.72;;;4.80;55.00;;;;;;5191139;28;20058;-65
2021/04/15 08:52:39;;;;;;;10.85;7.03;;;4.70;54.10;;;;;;5187852;28;20092;-66
2021/04/15 08:55:23;;;;;;;9.82;6.90;;;4.70;53.70;;;;;;5186534;28;20133;-64
2021/04/15 08:58:25;;;;;;;10.68;7.43;;;4.70;54.90;;;;;;5190098;28;20041;-64
2021/04/15 09:01:15;;;;;;;9.57;6.00;;;4.70;54.90;;;;;;5189463;28;20048;-64
2021/04/15 09:04:10;;;;;;;8.65;5.70;;;4.80;54.00;;;;;;5190269;28;20180;-65
2021/04/15 09:07:21;;;;;;;7.75;5.65;;;4.80;51.10;;;;;;5192670;28;20058;-64
2021/04/15 09:10:26;;;;;;;7.75;5.40;;;5.10;50.50;;;;;;5188737;28;20414;-64
2021/04/15 09:13:23;;;;;;;14.57;5.60;;;5.20;49.20;;;;;;5169408;28;20054;-65
2021/04/15 09:16:25;;;;;;;8.00;5.75;;;5.20;50.10;;;;;;5183553;28;20046;-64
2021/04/15 09:19:11;;;;;;;8.93;6.20;;;5.00;50.20;;;;;;5169967;28;20054;-65
2021/04/15 09:21:47;;;;;;;8.27;5.53;;;5.20;49.80;;;;;;5189953;28;20142;-65
2021/04/15 09:24:44;;;;;;;10.02;5.43;;;5.30;50.40;;;;;;5190555;28;20069;-67
2021/04/15 09:27:25;;;;;;;9.35;5.43;;;5.20;50.60;;;;;;5190305;28;20059;-65
2021/04/15 09:30:01;;;;;;;;;;;5.40;49.80;;;;;;5191460;28;20829;-65
2021/04/15 09:33:18;;;;;;;8.95;5.80;;;5.40;48.50;;;;;;5189327;28;19932;-66
2021/04/15 09:36:07;;;;;;;9.10;5.03;;;5.60;48.20;;;;;;5167014;28;20041;-64
2021/04/15 09:38:51;;;;;;;7.43;4.60;;;5.80;47.20;;;;;;5192254;28;20107;-66
2021/04/15 09:41:39;;;;;;;6.45;4.70;;;5.90;45.80;;;;;;5188595;28;20049;-69
2021/04/15 09:44:14;;;;;;;7.28;4.53;;;6.00;45.90;;;;;;5192594;28;20415;-65
2021/04/15 09:46:53;;;;;;;7.50;4.85;;;6.10;45.30;;;;;;5193099;28;20042;-65
2021/04/15 09:49:30;;;;;;;7.27;4.60;;;6.20;44.90;;;;;;5189056;28;20034;-65
2021/04/15 09:52:35;;;;;;;8.02;4.85;;;6.40;44.00;;;;;;5185589;28;20334;-65
2021/04/15 09:55:48;;;;;;;8.27;5.25;;;6.50;44.50;;;;;;5187174;28;20529;-64
2021/04/15 09:58:29;;;;;;;9.27;5.93;;;6.60;46.40;;;;;;5189185;28;20204;-64
2021/04/15 10:01:29;;;;;;;10.00;5.65;;;6.40;45.30;;;;;;5202862;28;20053;-65
2021/04/15 10:04:26;;;;;;;9.00;5.85;;;6.10;47.20;;;;;;5184842;28;20431;-65
2021/04/15 10:07:08;;;;;;;9.50;6.18;;;5.90;47.50;;;;;;5187004;28;20050;-64
2021/04/15 10:10:02;;;;;;;8.55;5.80;;;5.80;48.60;;;;;;5187016;28;20463;-64
2021/04/15 10:12:52;;;;;;;9.02;6.22;;;5.80;50.70;;;;;;5183089;28;20069;-65
2021/04/15 10:15:32;;;;;;;9.45;6.20;;;5.70;49.40;;;;;;5187468;28;20038;-64
2021/04/15 10:18:05;;;;;;;9.25;6.28;;;5.60;50.40;;;;;;5188582;28;20139;-64
2021/04/15 10:20:52;;;;;;;10.45;6.18;;;5.50;50.00;;;;;;5185840;28;20046;-64
2021/04/15 10:23:30;;;;;;;7.80;5.45;;;5.40;49.60;;;;;;5187815;28;20492;-65
2021/04/15 10:26:17;;;;;;;6.95;5.10;;;5.30;49.70;;;;;;5176830;28;20136;-65
2021/04/15 10:29:21;;;;;;;9.88;5.43;;;5.30;48.70;;;;;;5167445;28;20411;-65
2021/04/15 10:32:32;;;;;;;7.50;5.13;;;5.30;50.20;;;;;;5166266;28;20042;-64
2021/04/15 10:35:32;;;;;;;9.05;5.80;;;5.30;50.60;;;;;;5168495;28;20045;-64
2021/04/15 10:38:20;;;;;;;7.85;4.90;;;5.40;51.00;;;;;;5187549;28;20038;-63
2021/04/15 10:41:22;;;;;;;7.35;4.93;;;5.40;52.20;;;;;;5184048;28;20096;-65
2021/04/15 10:44:20;;;;;;;8.98;6.15;;;5.40;52.10;;;;;;5190644;28;20080;-64
2021/04/15 10:47:06;;;;;;;8.98;5.28;;;5.30;53.30;;;;;;5192410;28;20042;-64
2021/04/15 10:49:59;;;;;;;7.95;5.40;;;5.20;55.80;;;;;;5185401;28;20045;-64
2021/04/15 10:52:48;;;;;;;9.38;5.50;;;5.00;56.80;;;;;;5186684;28;20049;-64
2021/04/15 10:55:35;;;;;;;8.23;5.85;;;5.10;57.30;;;;;;5187195;28;20037;-64
2021/04/15 10:58:42;;;;;;;9.23;5.22;;;5.30;57.50;;;;;;5187432;28;20223;-64
2021/04/15 11:01:42;;;;;;;7.35;5.05;;;5.20;57.30;;;;;;5166641;28;20554;-64
2021/04/15 11:04:13;;;;;;;8.43;4.60;;;5.30;56.50;;;;;;5185458;28;20164;-65
2021/04/15 11:06:58;;;;;;;7.43;4.80;;;5.30;55.30;;;;;;5188947;28;20056;-65
2021/04/15 11:09:43;;;;;;;7.25;4.50;;;5.80;54.30;;;;;;5188684;28;20046;-64
2021/04/15 11:12:14;;;;;;;6.97;4.70;;;6.30;48.00;;;;;;5185638;28;20113;-66
2021/04/15 11:14:46;;;;;;;8.38;4.53;;;6.60;39.90;;;;;;5188624;28;20038;-63
2021/04/15 11:17:26;;;;;;;7.05;4.10;;;6.30;41.60;;;;;;5165772;28;20045;-63
2021/04/15 11:20:19;;;;;;;7.47;4.28;;;6.40;43.80;;;;;;5172887;28;20092;-63
2021/04/15 11:22:52;;;;;;;6.03;4.30;;;6.20;41.20;;;;;;5172645;28;20538;-63
2021/04/15 11:25:33;;;;;;;6.22;4.38;;;6.00;42.20;;;;;;5165353;28;20054;-63
2021/04/15 11:28:22;;;;;;;8.88;4.65;;;6.00;42.90;;;;;;5170199;28;20521;-64
2021/04/15 11:30:58;;;;;;;6.93;4.60;;;5.80;40.70;;;;;;5168762;28;20049;-63
2021/04/15 11:33:52;;;;;;;8.13;4.80;;;5.60;43.30;;;;;;5188266;28;20045;-63
2021/04/15 11:36:30;;;;;;;7.00;4.60;;;5.80;43.30;;;;;;5188133;28;20054;-64
2021/04/15 11:39:04;;;;;;;6.80;4.38;;;5.80;44.10;;;;;;5185533;28;20580;-65
2021/04/15 11:41:53;;;;;;;7.20;4.30;;;5.90;43.90;;;;;;5186416;28;20041;-63
2021/04/15 11:44:27;;;;;;;7.63;4.27;;;6.00;42.20;;;;;;5187989;28;20134;-64
2021/04/15 11:47:04;;;;;;;6.47;4.20;;;5.90;43.20;;;;;;5186391;28;20077;-63
2021/04/15 11:49:39;;;;;;;8.82;4.45;;;6.00;42.20;;;;;;5185085;28;20042;-63
2021/04/15 11:52:27;;;;;;;8.05;4.40;;;6.00;41.10;;;;;;5186069;28;20543;-64
2021/04/15 11:54:58;;;;;;;6.30;4.20;;;6.00;41.40;;;;;;5188466;28;20106;-64
2021/04/15 11:57:33;;;;;;;7.63;4.68;;;6.00;41.50;;;;;;5187531;28;20103;-64
2021/04/15 12:00:21;;;;;;;6.72;4.30;;;6.00;41.60;;;;;;5186492;28;20050;-63
2021/04/15 12:03:17;;;;;;;7.78;4.78;;;6.00;42.50;;;;;;5166748;28;20152;-64
2021/04/15 12:05:49;;;;;;;6.28;4.35;;;5.90;43.70;;;;;;5166862;28;20796;-63
2021/04/15 12:08:31;;;;;;;8.43;4.90;;;5.90;44.00;;;;;;5169843;28;20065;-63
2021/04/15 12:11:08;;;;;;;9.57;4.85;;;6.40;46.30;;;;;;5175547;28;20107;-63
2021/04/15 12:13:48;;;;;;;9.10;4.70;;;6.40;45.90;;;;;;5190606;28;20401;-64
2021/04/15 12:16:36;;;;;;;7.18;4.75;;;6.40;46.10;;;;;;5185967;28;20851;-63
2021/04/15 12:19:27;;;;;;;9.07;4.95;;;6.30;45.60;;;;;;5190294;28;20045;-64
2021/04/15 12:22:04;;;;;;;6.60;4.63;;;6.20;44.30;;;;;;5191783;28;20046;-64
2021/04/15 12:24:41;;;;;;;6.95;4.80;;;6.10;43.40;;;;;;5182822;28;20423;-63
2021/04/15 12:27:16;;;;;;;7.50;4.93;;;6.10;43.90;;;;;;5192440;28;20148;-64
2021/04/15 12:29:51;;;;;;;7.32;4.63;;;6.20;43.20;;;;;;5188371;28;20073;-63
2021/04/15 12:32:51;;;;;;;6.95;4.63;;;6.30;43.50;;;;;;5166901;28;20046;-64
2021/04/15 12:35:46;;;;;;;7.57;4.68;;;6.40;44.40;;;;;;5166440;28;20050;-64
2021/04/15 12:39:01;;;;;;;6.93;4.82;;;6.30;44.10;;;;;;5182984;28;20050;-64
2021/04/15 12:41:35;;;;;;;6.50;4.43;;;6.20;43.10;;;;;;5148327;28;20543;-65
2021/04/15 12:44:27;;;;;;;7.05;4.65;;;6.20;43.30;;;;;;5156524;28;20269;-64
2021/04/15 12:47:00;;;;;;;8.65;4.75;;;6.20;44.20;;;;;;5179015;28;20053;-64
2021/04/15 12:49:35;;;;;;;7.07;4.50;;;6.10;43.50;;;;;;5185173;28;20034;-63
2021/04/15 12:52:12;;;;;;;7.22;4.50;;;6.10;43.10;;;;;;5188447;28;20519;-64
2021/04/15 12:54:44;;;;;;;8.80;5.30;;;6.10;41.50;;;;;;5186238;28;20033;-65
2021/04/15 12:57:16;;;;;;;6.95;4.60;;;6.00;40.90;;;;;;5189153;28;20057;-63
2021/04/15 12:59:51;;;;;;;7.20;4.00;;;6.00;40.40;;;;;;5188869;28;20104;-63
2021/04/15 13:02:29;;;;;;;7.90;5.15;;;6.20;40.30;;;;;;5188541;28;20076;-63
2021/04/15 13:05:12;;;;;;;8.43;5.40;;;6.30;40.40;;;;;;5192470;28;21447;-63
2021/04/15 13:07:44;;;;;;;6.85;4.60;;;6.40;40.40;;;;;;5193484;28;20073;-64
2021/04/15 13:10:19;;;;;;;6.90;4.68;;;6.60;39.70;;;;;;5185056;28;20042;-64
2021/04/15 13:12:53;;;;;;;8.05;4.65;;;6.60;39.10;;;;;;5191202;28;20048;-63
2021/04/15 13:15:24;;;;;;;7.05;4.97;;;6.80;38.50;;;;;;5186470;28;20091;-63
2021/04/15 13:17:58;;;;;;;8.02;4.32;;;6.90;38.20;;;;;;5188619;28;20060;-63
2021/04/15 13:20:29;;;;;;;6.57;4.43;;;6.90;37.20;;;;;;5187853;28;20116;-63
2021/04/15 13:23:09;;;;;;;6.38;4.47;;;7.10;36.80;;;;;;5188687;28;20073;-64
2021/04/15 13:25:49;;;;;;;8.35;5.47;;;7.30;36.70;;;;;;5188998;28;20041;-63
2021/04/15 13:28:41;;;;;;;6.10;4.45;;;7.60;36.80;;;;;;5189034;28;20408;-64
2021/04/15 13:31:33;;;;;;;6.50;4.70;;;7.80;37.00;;;;;;5187247;28;20046;-65
2021/04/15 13:34:10;;;;;;;7.32;4.88;;;8.00;35.70;;;;;;5187880;28;20659;-65
2021/04/15 13:36:43;;;;;;;6.78;4.90;;;8.00;35.20;;;;;;5183562;28;20038;-64
2021/04/15 13:39:36;;;;;;;6.82;4.57;;;8.20;35.20;;;;;;5183784;28;20558;-63
2021/04/15 13:42:32;;;;;;;8.05;5.03;;;8.50;35.60;;;;;;5183456;28;20113;-64
2021/04/15 13:45:28;;;;;;;8.70;4.72;;;8.90;32.40;;;;;;5193298;28;20076;-64
2021/04/15 13:48:00;;;;;;;7.72;4.57;;;8.70;34.20;;;;;;5177260;28;20066;-64
2021/04/15 13:51:07;;;;;;;11.10;7.03;;;8.80;33.40;;;;;;5185605;28;20046;-66
2021/04/15 13:54:24;;;;;;;10.02;6.72;;;8.80;35.00;;;;;;5188014;28;20510;-63
2021/04/15 13:57:00;;;;;;;9.32;6.15;;;8.50;34.30;;;;;;5190737;28;20046;-63
2021/04/15 14:02:18;;;;;;;11.40;7.57;;;9.10;35.60;;;;;;5185040;28;20504;-66
2021/04/15 14:04:57;;;;;;;13.85;8.35;;;9.40;34.50;;;;;;5187894;28;20033;-65
2021/04/15 14:07:35;;;;;;;7.95;5.68;;;9.60;34.40;;;;;;5187151;28;20589;-64
2021/04/15 14:10:12;;;;;;;6.78;5.15;;;9.30;35.70;;;;;;5185878;28;20042;-66
2021/04/15 14:12:57;;;;;;;9.02;5.70;;;8.90;36.90;;;;;;5189510;28;20369;-65
2021/04/15 14:15:34;;;;;;;8.50;5.82;;;8.60;36.80;;;;;;5187932;28;20065;-64
2021/04/15 14:18:24;;;;;;;7.63;5.30;;;8.30;37.30;;;;;;5187234;28;20045;-65
2021/04/15 14:20:59;;;;;;;6.80;5.18;;;8.10;38.00;;;;;;5184368;28;20049;-64
2021/04/15 14:23:57;;;;;;;7.97;5.15;;;7.90;37.30;;;;;;5191223;28;20042;-64